createdAt,value
2022-08-11T05:18:53.477Z,15.40
2022-08-11T05:24:11.488Z,15.40
2022-08-11T05:41:43.161Z,16.10
2022-08-11T05:46:59.840Z,16.30
2022-08-11T05:52:12.843Z,16.60
2022-08-11T05:57:48.861Z,17.10
2022-08-11T06:02:33.789Z,17.40
2022-08-11T06:07:47.248Z,17.70
2022-08-11T06:22:53.086Z,18.80
2022-08-11T06:27:48.995Z,19.00
2022-08-11T06:32:45.774Z,19.20
2022-08-11T06:38:07.648Z,19.40
2022-08-11T06:43:09.211Z,19.40
2022-08-11T06:48:03.603Z,19.50
2022-08-11T07:03:27.222Z,20.00
2022-08-11T07:09:07.604Z,20.00
2022-08-11T07:14:21.108Z,20.10
2022-08-11T07:19:36.777Z,20.40
2022-08-11T07:24:59.593Z,20.60
2022-08-11T07:41:36.409Z,21.90
2022-08-11T07:46:52.624Z,22.00
2022-08-11T07:52:03.973Z,21.90
2022-08-11T07:57:09.294Z,21.90
2022-08-11T08:13:39.390Z,22.40
2022-08-11T08:18:36.003Z,22.50
2022-08-11T08:23:34.559Z,22.50
2022-08-11T08:28:32.646Z,22.70
2022-08-11T08:45:27.496Z,23.50
2022-08-11T08:50:46.806Z,23.60
2022-08-11T08:55:45.539Z,23.50
2022-08-11T09:00:47.156Z,23.60
2022-08-11T09:05:41.966Z,23.80
2022-08-11T09:10:37.096Z,24.10
2022-08-11T09:15:31.613Z,24.40
2022-08-11T09:20:29.485Z,24.70
2022-08-11T09:25:44.235Z,25.00
2022-08-11T09:30:41.995Z,25.00
2022-08-11T09:35:39.727Z,25.20
2022-08-11T09:40:34.113Z,25.50
2022-08-11T09:45:29.183Z,25.40
2022-08-11T09:50:35.254Z,25.60
2022-08-11T09:55:30.612Z,26.00
2022-08-11T10:00:30.935Z,26.30
2022-08-11T10:05:39.701Z,26.40
2022-08-11T10:10:38.132Z,26.40
2022-08-11T10:15:38.472Z,26.60
2022-08-11T10:20:35.467Z,26.60
2022-08-11T10:25:52.090Z,27.10
2022-08-11T10:31:06.696Z,27.50
2022-08-11T10:36:01.711Z,27.80
2022-08-11T10:41:10.428Z,28.20
2022-08-11T10:46:30.404Z,28.50
2022-08-11T10:51:51.250Z,28.60
2022-08-11T10:57:04.943Z,28.80
2022-08-11T11:02:02.259Z,28.80
2022-08-11T11:07:04.755Z,28.70
2022-08-11T11:12:19.483Z,28.90
2022-08-11T11:17:32.630Z,29.50
2022-08-11T11:22:40.899Z,29.60
2022-08-11T11:27:46.431Z,29.70
2022-08-11T11:32:56.463Z,29.90
2022-08-11T11:38:03.756Z,30.30
2022-08-11T11:42:59.587Z,30.70
2022-08-11T11:47:59.830Z,30.80
2022-08-11T11:52:55.493Z,30.80
2022-08-11T11:58:06.559Z,31.10
2022-08-11T12:03:04.003Z,31.00
2022-08-11T12:08:19.041Z,31.50
2022-08-11T12:13:31.414Z,31.60
2022-08-11T12:18:26.886Z,32.00
2022-08-11T12:23:38.153Z,32.20
2022-08-11T12:28:32.627Z,32.30
2022-08-11T12:33:28.806Z,32.40
2022-08-11T12:38:26.050Z,32.40
2022-08-11T12:43:43.211Z,31.90
2022-08-11T12:49:03.555Z,31.60
2022-08-11T12:54:02.526Z,31.80
2022-08-11T12:59:15.322Z,32.30
2022-08-11T13:04:28.563Z,32.60
2022-08-11T13:09:22.435Z,33.20
2022-08-11T13:14:17.582Z,33.30
2022-08-11T13:19:13.290Z,33.50
2022-08-11T13:24:07.758Z,33.20
2022-08-11T13:29:01.582Z,33.20
2022-08-11T13:33:55.573Z,33.00
2022-08-11T13:38:51.886Z,32.90
2022-08-11T13:43:45.694Z,32.70
2022-08-11T13:48:39.816Z,32.70
2022-08-11T13:53:34.311Z,33.00
2022-08-11T13:58:38.896Z,33.50
2022-08-11T14:04:31.382Z,33.80
2022-08-11T14:08:51.083Z,33.90
2022-08-11T14:13:47.973Z,34.10
2022-08-11T14:18:46.023Z,34.20
2022-08-11T14:23:42.556Z,34.20
2022-08-11T14:28:43.724Z,33.80
2022-08-11T14:33:59.321Z,33.70
2022-08-11T14:38:56.667Z,33.90
2022-08-11T14:44:13.679Z,33.60
2022-08-11T14:49:09.682Z,33.50
2022-08-11T14:54:17.554Z,33.80
2022-08-11T14:59:12.919Z,33.90
2022-08-11T15:04:35.348Z,34.30
2022-08-11T15:09:32.335Z,34.70
2022-08-11T15:14:41.467Z,34.50
2022-08-11T15:19:40.971Z,34.70
2022-08-11T15:24:39.539Z,34.30
2022-08-11T15:29:54.096Z,34.00
2022-08-11T15:35:08.772Z,33.70
2022-08-11T15:40:31.328Z,32.90
2022-08-11T15:45:45.120Z,32.10
2022-08-11T15:50:45.695Z,31.70
2022-08-11T15:55:43.695Z,31.20
2022-08-11T16:01:03.682Z,30.90
2022-08-11T16:05:58.555Z,30.60
2022-08-11T16:10:57.399Z,30.30
2022-08-11T16:16:12.098Z,30.00
2022-08-11T16:21:06.322Z,29.90
2022-08-11T16:27:08.534Z,29.80
2022-08-11T16:31:17.903Z,29.70
2022-08-11T16:36:29.362Z,29.70
2022-08-11T16:41:45.211Z,29.30
2022-08-11T16:46:56.334Z,28.90
2022-08-11T16:51:50.045Z,28.80
2022-08-11T16:56:48.145Z,28.50
2022-08-11T17:01:44.920Z,28.10
2022-08-11T17:07:00.307Z,27.90
2022-08-11T17:12:16.831Z,28.10
2022-08-11T17:17:15.704Z,28.40
2022-08-11T17:22:26.767Z,27.70
2022-08-11T17:27:24.708Z,27.40
2022-08-11T17:32:55.558Z,27.50
2022-08-11T17:37:51.969Z,27.20
2022-08-11T17:43:05.840Z,26.90
2022-08-11T17:48:18.043Z,26.60
2022-08-11T17:53:31.319Z,26.40
2022-08-11T17:58:44.349Z,26.20
2022-08-11T18:03:40.087Z,26.00
2022-08-11T18:08:53.539Z,25.80
2022-08-11T18:14:09.275Z,25.80
2022-08-11T18:19:20.483Z,25.50
2022-08-11T18:24:33.542Z,25.40
2022-08-11T18:29:46.800Z,25.30
2022-08-11T18:35:00.862Z,25.40
2022-08-11T18:40:17.909Z,25.30
2022-08-11T18:45:45.294Z,25.20
2022-08-11T18:51:31.520Z,25.10
2022-08-11T18:56:31.363Z,24.90
2022-08-11T19:01:46.194Z,24.80
2022-08-11T19:06:58.517Z,24.70
2022-08-11T19:12:11.247Z,24.50
2022-08-11T19:17:44.022Z,24.40
2022-08-11T19:22:57.123Z,24.30
2022-08-11T19:28:09.185Z,24.30
2022-08-11T19:33:59.904Z,24.20
2022-08-11T19:38:55.732Z,24.20
2022-08-11T19:44:08.115Z,24.10
2022-08-11T19:49:21.501Z,23.90
2022-08-11T19:54:33.778Z,23.90
2022-08-11T19:59:45.467Z,23.70
2022-08-11T20:04:58.464Z,23.60
2022-08-11T20:10:10.575Z,23.60
2022-08-11T20:15:22.562Z,23.40
2022-08-11T20:20:36.334Z,23.10
2022-08-11T20:25:48.550Z,23.00
2022-08-11T20:31:02.633Z,23.00
2022-08-11T20:36:15.416Z,23.00
2022-08-11T20:41:29.026Z,23.00
